sensor_id;sensor_type;location;lat;lon;timestamp;P1;durP1;ratioP1;P2;durP2;ratioP2
45356;SDS011;31092;51.924;21.448;2024-02-26T00:02:16;9.85;;;5.45;;
45356;SDS011;31092;51.924;21.448;2024-02-26T00:04:41;8.10;;;5.28;;
45356;SDS011;31092;51.924;21.448;2024-02-26T00:07:07;10.15;;;5.88;;
45356;SDS011;31092;51.924;21.448;2024-02-26T00:09:33;8.18;;;4.28;;
45356;SDS011;31092;51.924;21.448;2024-02-26T00:12:01;9.25;;;5.72;;
45356;SDS011;31092;51.924;21.448;2024-02-26T00:14:29;10.02;;;4.75;;
45356;SDS011;31092;51.924;21.448;2024-02-26T00:16:55;6.30;;;4.88;;
45356;SDS011;31092;51.924;21.448;2024-02-26T00:19:20;12.20;;;5.40;;
45356;SDS011;31092;51.924;21.448;2024-02-26T00:21:45;7.32;;;4.68;;
45356;SDS011;31092;51.924;21.448;2024-02-26T00:24:11;9.13;;;5.22;;
45356;SDS011;31092;51.924;21.448;2024-02-26T00:26:36;8.30;;;4.63;;
45356;SDS011;31092;51.924;21.448;2024-02-26T00:29:02;5.18;;;4.32;;
45356;SDS011;31092;51.924;21.448;2024-02-26T00:31:27;7.38;;;3.85;;
45356;SDS011;31092;51.924;21.448;2024-02-26T00:33:53;8.93;;;5.13;;
45356;SDS011;31092;51.924;21.448;2024-02-26T00:36:18;10.18;;;5.05;;
45356;SDS011;31092;51.924;21.448;2024-02-26T00:38:44;10.52;;;5.38;;
45356;SDS011;31092;51.924;21.448;2024-02-26T00:41:15;6.00;;;4.45;;
45356;SDS011;31092;51.924;21.448;2024-02-26T00:43:41;6.07;;;4.07;;
45356;SDS011;31092;51.924;21.448;2024-02-26T00:46:07;11.00;;;5.25;;
45356;SDS011;31092;51.924;21.448;2024-02-26T00:48:33;7.82;;;4.78;;
45356;SDS011;31092;51.924;21.448;2024-02-26T00:50:58;9.27;;;5.10;;
45356;SDS011;31092;51.924;21.448;2024-02-26T00:53:24;6.53;;;4.03;;
45356;SDS011;31092;51.924;21.448;2024-02-26T00:55:50;8.20;;;4.60;;
45356;SDS011;31092;51.924;21.448;2024-02-26T00:58:16;6.38;;;4.00;;
45356;SDS011;31092;51.924;21.448;2024-02-26T01:00:41;6.22;;;4.05;;
45356;SDS011;31092;51.924;21.448;2024-02-26T01:03:08;7.40;;;4.13;;
45356;SDS011;31092;51.924;21.448;2024-02-26T01:05:35;4.72;;;3.72;;
45356;SDS011;31092;51.924;21.448;2024-02-26T01:08:01;4.82;;;3.40;;
45356;SDS011;31092;51.924;21.448;2024-02-26T01:10:26;4.63;;;3.30;;
45356;SDS011;31092;51.924;21.448;2024-02-26T01:12:52;4.85;;;3.67;;
45356;SDS011;31092;51.924;21.448;2024-02-26T01:15:17;4.88;;;3.60;;
45356;SDS011;31092;51.924;21.448;2024-02-26T01:17:47;7.50;;;4.55;;
45356;SDS011;31092;51.924;21.448;2024-02-26T01:20:12;5.38;;;4.00;;
45356;SDS011;31092;51.924;21.448;2024-02-26T01:22:38;5.68;;;4.00;;
45356;SDS011;31092;51.924;21.448;2024-02-26T01:25:03;6.78;;;4.10;;
45356;SDS011;31092;51.924;21.448;2024-02-26T01:27:29;8.32;;;4.30;;
45356;SDS011;31092;51.924;21.448;2024-02-26T01:29:55;6.95;;;4.10;;
45356;SDS011;31092;51.924;21.448;2024-02-26T01:32:20;5.55;;;4.20;;
45356;SDS011;31092;51.924;21.448;2024-02-26T01:34:46;6.57;;;3.63;;
45356;SDS011;31092;51.924;21.448;2024-02-26T01:37:11;7.47;;;3.85;;
45356;SDS011;31092;51.924;21.448;2024-02-26T01:39:36;6.47;;;4.15;;
45356;SDS011;31092;51.924;21.448;2024-02-26T01:42:02;10.05;;;4.60;;
45356;SDS011;31092;51.924;21.448;2024-02-26T01:44:28;7.55;;;4.72;;
45356;SDS011;31092;51.924;21.448;2024-02-26T01:46:53;9.25;;;4.30;;
45356;SDS011;31092;51.924;21.448;2024-02-26T01:49:19;8.07;;;4.82;;
45356;SDS011;31092;51.924;21.448;2024-02-26T01:51:44;7.15;;;4.63;;
45356;SDS011;31092;51.924;21.448;2024-02-26T01:54:11;6.45;;;3.97;;
45356;SDS011;31092;51.924;21.448;2024-02-26T01:56:37;6.47;;;4.53;;
45356;SDS011;31092;51.924;21.448;2024-02-26T01:59:04;7.03;;;4.80;;
45356;SDS011;31092;51.924;21.448;2024-02-26T02:01:31;5.95;;;3.92;;
45356;SDS011;31092;51.924;21.448;2024-02-26T02:03:58;9.50;;;4.93;;
45356;SDS011;31092;51.924;21.448;2024-02-26T02:06:24;8.98;;;5.10;;
45356;SDS011;31092;51.924;21.448;2024-02-26T02:08:50;11.80;;;4.78;;
45356;SDS011;31092;51.924;21.448;2024-02-26T02:11:16;7.18;;;4.32;;
45356;SDS011;31092;51.924;21.448;2024-02-26T02:13:42;8.00;;;4.90;;
45356;SDS011;31092;51.924;21.448;2024-02-26T02:16:08;9.73;;;4.93;;
45356;SDS011;31092;51.924;21.448;2024-02-26T02:18:34;7.35;;;4.80;;
45356;SDS011;31092;51.924;21.448;2024-02-26T02:21:02;8.35;;;5.10;;
45356;SDS011;31092;51.924;21.448;2024-02-26T02:23:28;8.95;;;5.53;;
45356;SDS011;31092;51.924;21.448;2024-02-26T02:25:54;10.48;;;5.38;;
45356;SDS011;31092;51.924;21.448;2024-02-26T02:28:21;11.00;;;5.80;;
45356;SDS011;31092;51.924;21.448;2024-02-26T02:30:47;8.85;;;4.93;;
45356;SDS011;31092;51.924;21.448;2024-02-26T02:33:13;10.57;;;5.43;;
45356;SDS011;31092;51.924;21.448;2024-02-26T02:35:40;10.40;;;5.97;;
45356;SDS011;31092;51.924;21.448;2024-02-26T02:38:06;11.35;;;6.13;;
45356;SDS011;31092;51.924;21.448;2024-02-26T02:40:31;8.13;;;5.18;;
45356;SDS011;31092;51.924;21.448;2024-02-26T02:42:57;9.00;;;5.40;;
45356;SDS011;31092;51.924;21.448;2024-02-26T02:45:23;10.80;;;5.28;;
45356;SDS011;31092;51.924;21.448;2024-02-26T02:47:49;12.15;;;5.90;;
45356;SDS011;31092;51.924;21.448;2024-02-26T02:50:14;9.60;;;5.32;;
45356;SDS011;31092;51.924;21.448;2024-02-26T02:52:40;10.75;;;4.72;;
45356;SDS011;31092;51.924;21.448;2024-02-26T02:55:05;6.25;;;4.30;;
45356;SDS011;31092;51.924;21.448;2024-02-26T02:57:31;7.65;;;5.28;;
45356;SDS011;31092;51.924;21.448;2024-02-26T02:59:58;7.93;;;5.07;;
45356;SDS011;31092;51.924;21.448;2024-02-26T03:02:23;6.95;;;4.45;;
45356;SDS011;31092;51.924;21.448;2024-02-26T03:04:52;7.53;;;4.50;;
45356;SDS011;31092;51.924;21.448;2024-02-26T03:07:17;5.88;;;4.55;;
45356;SDS011;31092;51.924;21.448;2024-02-26T03:09:43;12.30;;;5.05;;
45356;SDS011;31092;51.924;21.448;2024-02-26T03:12:08;6.47;;;5.15;;
45356;SDS011;31092;51.924;21.448;2024-02-26T03:14:34;6.95;;;4.03;;
45356;SDS011;31092;51.924;21.448;2024-02-26T03:17:00;6.03;;;4.55;;
45356;SDS011;31092;51.924;21.448;2024-02-26T03:19:25;10.88;;;5.25;;
45356;SDS011;31092;51.924;21.448;2024-02-26T03:21:51;7.10;;;4.47;;
45356;SDS011;31092;51.924;21.448;2024-02-26T03:24:16;7.60;;;4.32;;
45356;SDS011;31092;51.924;21.448;2024-02-26T03:26:42;8.05;;;4.65;;
45356;SDS011;31092;51.924;21.448;2024-02-26T03:29:08;7.35;;;3.90;;
45356;SDS011;31092;51.924;21.448;2024-02-26T03:31:33;8.20;;;4.47;;
45356;SDS011;31092;51.924;21.448;2024-02-26T03:33:59;9.73;;;5.10;;
45356;SDS011;31092;51.924;21.448;2024-02-26T03:36:24;10.88;;;5.45;;
45356;SDS011;31092;51.924;21.448;2024-02-26T03:38:50;9.10;;;5.72;;
45356;SDS011;31092;51.924;21.448;2024-02-26T03:41:15;9.38;;;5.22;;
45356;SDS011;31092;51.924;21.448;2024-02-26T03:43:41;9.70;;;4.82;;
45356;SDS011;31092;51.924;21.448;2024-02-26T03:46:09;8.60;;;5.50;;
45356;SDS011;31092;51.924;21.448;2024-02-26T03:48:39;8.90;;;5.03;;
45356;SDS011;31092;51.924;21.448;2024-02-26T03:51:05;10.90;;;5.53;;
45356;SDS011;31092;51.924;21.448;2024-02-26T03:53:31;9.85;;;6.10;;
45356;SDS011;31092;51.924;21.448;2024-02-26T03:55:56;9.60;;;5.22;;
45356;SDS011;31092;51.924;21.448;2024-02-26T03:58:22;12.15;;;5.75;;
45356;SDS011;31092;51.924;21.448;2024-02-26T04:00:47;7.93;;;5.13;;
45356;SDS011;31092;51.924;21.448;2024-02-26T04:03:13;11.20;;;5.30;;
45356;SDS011;31092;51.924;21.448;2024-02-26T04:05:39;12.40;;;5.78;;
45356;SDS011;31092;51.924;21.448;2024-02-26T04:08:04;9.40;;;5.15;;
45356;SDS011;31092;51.924;21.448;2024-02-26T04:10:32;10.40;;;5.28;;
45356;SDS011;31092;51.924;21.448;2024-02-26T04:12:57;11.95;;;6.05;;
45356;SDS011;31092;51.924;21.448;2024-02-26T04:15:23;6.97;;;4.93;;
45356;SDS011;31092;51.924;21.448;2024-02-26T04:17:48;11.50;;;5.90;;
45356;SDS011;31092;51.924;21.448;2024-02-26T04:20:14;9.38;;;5.32;;
45356;SDS011;31092;51.924;21.448;2024-02-26T04:22:43;12.32;;;5.65;;
45356;SDS011;31092;51.924;21.448;2024-02-26T04:25:09;8.73;;;5.30;;
45356;SDS011;31092;51.924;21.448;2024-02-26T04:27:35;9.35;;;4.78;;
45356;SDS011;31092;51.924;21.448;2024-02-26T04:30:00;10.70;;;5.85;;
45356;SDS011;31092;51.924;21.448;2024-02-26T04:32:26;10.70;;;5.90;;
45356;SDS011;31092;51.924;21.448;2024-02-26T04:34:51;9.05;;;5.45;;
45356;SDS011;31092;51.924;21.448;2024-02-26T04:37:17;9.50;;;5.10;;
45356;SDS011;31092;51.924;21.448;2024-02-26T04:39:42;9.43;;;5.30;;
45356;SDS011;31092;51.924;21.448;2024-02-26T04:42:08;7.85;;;5.18;;
45356;SDS011;31092;51.924;21.448;2024-02-26T04:44:33;10.88;;;5.45;;
45356;SDS011;31092;51.924;21.448;2024-02-26T04:46:58;8.90;;;4.85;;
45356;SDS011;31092;51.924;21.448;2024-02-26T04:49:26;8.50;;;5.20;;
45356;SDS011;31092;51.924;21.448;2024-02-26T04:51:52;10.55;;;5.43;;
45356;SDS011;31092;51.924;21.448;2024-02-26T04:54:17;9.55;;;5.88;;
45356;SDS011;31092;51.924;21.448;2024-02-26T04:56:43;8.95;;;6.13;;
45356;SDS011;31092;51.924;21.448;2024-02-26T04:59:09;9.07;;;5.72;;
45356;SDS011;31092;51.924;21.448;2024-02-26T05:01:34;7.70;;;4.53;;
45356;SDS011;31092;51.924;21.448;2024-02-26T05:04:01;7.97;;;4.63;;
45356;SDS011;31092;51.924;21.448;2024-02-26T05:06:28;13.63;;;5.95;;
45356;SDS011;31092;51.924;21.448;2024-02-26T05:08:54;10.27;;;5.15;;
45356;SDS011;31092;51.924;21.448;2024-02-26T05:11:19;5.65;;;4.72;;
45356;SDS011;31092;51.924;21.448;2024-02-26T05:13:45;10.30;;;5.38;;
45356;SDS011;31092;51.924;21.448;2024-02-26T05:16:10;8.95;;;5.82;;
45356;SDS011;31092;51.924;21.448;2024-02-26T05:18:36;11.27;;;5.72;;
45356;SDS011;31092;51.924;21.448;2024-02-26T05:21:01;15.73;;;6.90;;
45356;SDS011;31092;51.924;21.448;2024-02-26T05:23:28;10.85;;;5.57;;
45356;SDS011;31092;51.924;21.448;2024-02-26T05:25:54;10.57;;;5.70;;
45356;SDS011;31092;51.924;21.448;2024-02-26T05:28:22;8.65;;;5.20;;
45356;SDS011;31092;51.924;21.448;2024-02-26T05:30:57;8.25;;;5.22;;
45356;SDS011;31092;51.924;21.448;2024-02-26T05:33:22;11.70;;;6.13;;
45356;SDS011;31092;51.924;21.448;2024-02-26T05:35:48;9.57;;;5.88;;
45356;SDS011;31092;51.924;21.448;2024-02-26T05:38:13;8.25;;;5.18;;
45356;SDS011;31092;51.924;21.448;2024-02-26T05:40:39;8.60;;;5.25;;
45356;SDS011;31092;51.924;21.448;2024-02-26T05:43:04;11.02;;;5.38;;
45356;SDS011;31092;51.924;21.448;2024-02-26T05:45:30;6.85;;;4.70;;
45356;SDS011;31092;51.924;21.448;2024-02-26T05:47:55;9.55;;;5.50;;
45356;SDS011;31092;51.924;21.448;2024-02-26T05:50:21;10.55;;;6.03;;
45356;SDS011;31092;51.924;21.448;2024-02-26T05:52:46;8.02;;;5.43;;
45356;SDS011;31092;51.924;21.448;2024-02-26T05:55:12;9.70;;;5.55;;
45356;SDS011;31092;51.924;21.448;2024-02-26T05:57:38;9.00;;;5.28;;
45356;SDS011;31092;51.924;21.448;2024-02-26T06:00:04;9.25;;;5.68;;
45356;SDS011;31092;51.924;21.448;2024-02-26T06:02:30;11.20;;;5.97;;
45356;SDS011;31092;51.924;21.448;2024-02-26T06:04:56;9.25;;;5.45;;
45356;SDS011;31092;51.924;21.448;2024-02-26T06:07:22;11.43;;;6.53;;
45356;SDS011;31092;51.924;21.448;2024-02-26T06:09:47;10.70;;;6.18;;
45356;SDS011;31092;51.924;21.448;2024-02-26T06:12:13;9.15;;;5.70;;
45356;SDS011;31092;51.924;21.448;2024-02-26T06:14:39;11.68;;;6.22;;
45356;SDS011;31092;51.924;21.448;2024-02-26T06:17:04;10.98;;;5.80;;
45356;SDS011;31092;51.924;21.448;2024-02-26T06:19:30;12.55;;;6.30;;
45356;SDS011;31092;51.924;21.448;2024-02-26T06:21:56;10.07;;;6.05;;
45356;SDS011;31092;51.924;21.448;2024-02-26T06:24:21;8.77;;;5.68;;
45356;SDS011;31092;51.924;21.448;2024-02-26T06:26:47;9.30;;;5.78;;
45356;SDS011;31092;51.924;21.448;2024-02-26T06:29:13;10.13;;;6.18;;
45356;SDS011;31092;51.924;21.448;2024-02-26T06:31:39;8.55;;;5.63;;
45356;SDS011;31092;51.924;21.448;2024-02-26T06:34:05;11.95;;;6.45;;
45356;SDS011;31092;51.924;21.448;2024-02-26T06:36:30;11.32;;;5.90;;
45356;SDS011;31092;51.924;21.448;2024-02-26T06:38:57;10.00;;;6.32;;
45356;SDS011;31092;51.924;21.448;2024-02-26T06:41:22;8.30;;;5.57;;
45356;SDS011;31092;51.924;21.448;2024-02-26T06:43:55;10.23;;;6.50;;
45356;SDS011;31092;51.924;21.448;2024-02-26T06:46:21;9.15;;;6.35;;
45356;SDS011;31092;51.924;21.448;2024-02-26T06:48:48;10.00;;;6.70;;
45356;SDS011;31092;51.924;21.448;2024-02-26T06:51:14;12.45;;;6.78;;
45356;SDS011;31092;51.924;21.448;2024-02-26T06:53:39;11.77;;;6.93;;
45356;SDS011;31092;51.924;21.448;2024-02-26T06:56:05;10.77;;;7.50;;
45356;SDS011;31092;51.924;21.448;2024-02-26T06:58:30;13.82;;;7.95;;
45356;SDS011;31092;51.924;21.448;2024-02-26T07:00:56;12.57;;;7.95;;
45356;SDS011;31092;51.924;21.448;2024-02-26T07:03:21;12.30;;;8.13;;
45356;SDS011;31092;51.924;21.448;2024-02-26T07:05:55;15.68;;;7.95;;
45356;SDS011;31092;51.924;21.448;2024-02-26T07:08:21;11.15;;;7.43;;
45356;SDS011;31092;51.924;21.448;2024-02-26T07:10:47;10.43;;;7.55;;
45356;SDS011;31092;51.924;21.448;2024-02-26T07:13:13;13.80;;;8.02;;
45356;SDS011;31092;51.924;21.448;2024-02-26T07:15:38;14.43;;;8.18;;
45356;SDS011;31092;51.924;21.448;2024-02-26T07:18:04;12.02;;;7.95;;
45356;SDS011;31092;51.924;21.448;2024-02-26T07:20:29;13.68;;;8.43;;
45356;SDS011;31092;51.924;21.448;2024-02-26T07:22:56;12.55;;;8.00;;
45356;SDS011;31092;51.924;21.448;2024-02-26T07:25:21;12.77;;;7.97;;
45356;SDS011;31092;51.924;21.448;2024-02-26T07:27:47;13.65;;;8.63;;
45356;SDS011;31092;51.924;21.448;2024-02-26T07:30:13;12.45;;;7.25;;
45356;SDS011;31092;51.924;21.448;2024-02-26T07:32:39;14.52;;;8.63;;
45356;SDS011;31092;51.924;21.448;2024-02-26T07:35:04;12.10;;;8.35;;
45356;SDS011;31092;51.924;21.448;2024-02-26T07:37:30;13.52;;;8.52;;
45356;SDS011;31092;51.924;21.448;2024-02-26T07:39:56;12.18;;;8.27;;
45356;SDS011;31092;51.924;21.448;2024-02-26T07:42:21;11.68;;;8.93;;
45356;SDS011;31092;51.924;21.448;2024-02-26T07:44:47;11.13;;;8.32;;
45356;SDS011;31092;51.924;21.448;2024-02-26T07:47:12;13.63;;;8.63;;
45356;SDS011;31092;51.924;21.448;2024-02-26T07:49:37;14.38;;;8.45;;
45356;SDS011;31092;51.924;21.448;2024-02-26T07:52:04;12.95;;;8.05;;
45356;SDS011;31092;51.924;21.448;2024-02-26T07:54:30;12.07;;;7.53;;
45356;SDS011;31092;51.924;21.448;2024-02-26T07:56:55;11.77;;;7.32;;
45356;SDS011;31092;51.924;21.448;2024-02-26T07:59:21;10.90;;;8.20;;
45356;SDS011;31092;51.924;21.448;2024-02-26T08:01:52;9.80;;;7.20;;
45356;SDS011;31092;51.924;21.448;2024-02-26T08:04:17;9.43;;;7.63;;
45356;SDS011;31092;51.924;21.448;2024-02-26T08:06:43;8.82;;;6.95;;
45356;SDS011;31092;51.924;21.448;2024-02-26T08:09:08;8.95;;;6.72;;
45356;SDS011;31092;51.924;21.448;2024-02-26T08:11:34;10.65;;;7.38;;
45356;SDS011;31092;51.924;21.448;2024-02-26T08:14:00;10.88;;;7.22;;
45356;SDS011;31092;51.924;21.448;2024-02-26T08:16:25;9.80;;;6.80;;
45356;SDS011;31092;51.924;21.448;2024-02-26T08:18:51;7.32;;;6.13;;
45356;SDS011;31092;51.924;21.448;2024-02-26T08:21:16;8.32;;;6.57;;
45356;SDS011;31092;51.924;21.448;2024-02-26T08:23:43;10.27;;;6.75;;
45356;SDS011;31092;51.924;21.448;2024-02-26T08:26:09;8.15;;;6.50;;
45356;SDS011;31092;51.924;21.448;2024-02-26T08:28:36;9.40;;;6.18;;
45356;SDS011;31092;51.924;21.448;2024-02-26T08:31:02;8.27;;;6.35;;
45356;SDS011;31092;51.924;21.448;2024-02-26T08:33:28;7.38;;;6.15;;
45356;SDS011;31092;51.924;21.448;2024-02-26T08:35:53;7.65;;;6.55;;
45356;SDS011;31092;51.924;21.448;2024-02-26T08:38:19;8.50;;;6.80;;
45356;SDS011;31092;51.924;21.448;2024-02-26T08:40:45;7.50;;;6.13;;
45356;SDS011;31092;51.924;21.448;2024-02-26T08:43:10;10.57;;;6.57;;
45356;SDS011;31092;51.924;21.448;2024-02-26T08:45:36;9.75;;;6.60;;
45356;SDS011;31092;51.924;21.448;2024-02-26T08:48:02;15.50;;;7.07;;
45356;SDS011;31092;51.924;21.448;2024-02-26T08:50:27;6.43;;;5.80;;
45356;SDS011;31092;51.924;21.448;2024-02-26T08:52:53;8.25;;;6.00;;
45356;SDS011;31092;51.924;21.448;2024-02-26T08:55:18;6.05;;;5.45;;
45356;SDS011;31092;51.924;21.448;2024-02-26T08:57:44;5.72;;;4.57;;
45356;SDS011;31092;51.924;21.448;2024-02-26T09:00:10;10.15;;;5.45;;
45356;SDS011;31092;51.924;21.448;2024-02-26T09:02:36;4.88;;;4.43;;
45356;SDS011;31092;51.924;21.448;2024-02-26T09:05:04;6.57;;;4.60;;
45356;SDS011;31092;51.924;21.448;2024-02-26T09:07:30;5.30;;;4.80;;
45356;SDS011;31092;51.924;21.448;2024-02-26T09:09:56;5.85;;;4.80;;
45356;SDS011;31092;51.924;21.448;2024-02-26T09:12:22;6.05;;;3.97;;
45356;SDS011;31092;51.924;21.448;2024-02-26T09:14:47;4.80;;;4.40;;
45356;SDS011;31092;51.924;21.448;2024-02-26T09:17:13;5.57;;;4.32;;
45356;SDS011;31092;51.924;21.448;2024-02-26T09:19:38;5.72;;;3.80;;
45356;SDS011;31092;51.924;21.448;2024-02-26T09:22:04;4.25;;;3.55;;
45356;SDS011;31092;51.924;21.448;2024-02-26T09:24:29;4.40;;;3.95;;
45356;SDS011;31092;51.924;21.448;2024-02-26T09:26:55;4.63;;;4.07;;
45356;SDS011;31092;51.924;21.448;2024-02-26T09:29:21;7.22;;;3.90;;
45356;SDS011;31092;51.924;21.448;2024-02-26T09:31:46;3.75;;;3.45;;
45356;SDS011;31092;51.924;21.448;2024-02-26T09:34:12;3.67;;;3.38;;
45356;SDS011;31092;51.924;21.448;2024-02-26T09:36:38;4.00;;;3.42;;
45356;SDS011;31092;51.924;21.448;2024-02-26T09:39:04;3.40;;;3.03;;
45356;SDS011;31092;51.924;21.448;2024-02-26T09:41:30;3.90;;;3.47;;
45356;SDS011;31092;51.924;21.448;2024-02-26T09:43:56;4.32;;;4.03;;
45356;SDS011;31092;51.924;21.448;2024-02-26T09:46:23;3.83;;;3.42;;
45356;SDS011;31092;51.924;21.448;2024-02-26T09:48:50;3.22;;;3.03;;
45356;SDS011;31092;51.924;21.448;2024-02-26T09:51:16;2.83;;;2.40;;
45356;SDS011;31092;51.924;21.448;2024-02-26T09:53:43;3.22;;;2.85;;
45356;SDS011;31092;51.924;21.448;2024-02-26T09:56:11;3.40;;;3.10;;
45356;SDS011;31092;51.924;21.448;2024-02-26T09:58:37;3.05;;;2.72;;
45356;SDS011;31092;51.924;21.448;2024-02-26T10:01:04;2.80;;;2.60;;
45356;SDS011;31092;51.924;21.448;2024-02-26T10:03:37;3.08;;;2.85;;
45356;SDS011;31092;51.924;21.448;2024-02-26T10:06:09;2.63;;;2.42;;
45356;SDS011;31092;51.924;21.448;2024-02-26T10:08:35;2.45;;;2.25;;
45356;SDS011;31092;51.924;21.448;2024-02-26T10:11:02;2.80;;;2.60;;
45356;SDS011;31092;51.924;21.448;2024-02-26T10:13:29;2.80;;;2.42;;
45356;SDS011;31092;51.924;21.448;2024-02-26T10:15:55;3.13;;;2.83;;
45356;SDS011;31092;51.924;21.448;2024-02-26T10:18:22;3.58;;;2.42;;
45356;SDS011;31092;51.924;21.448;2024-02-26T10:21:00;2.80;;;2.42;;
45356;SDS011;31092;51.924;21.448;2024-02-26T10:23:26;3.08;;;2.78;;
45356;SDS011;31092;51.924;21.448;2024-02-26T10:25:55;2.30;;;2.20;;
45356;SDS011;31092;51.924;21.448;2024-02-26T10:28:21;2.47;;;1.95;;
45356;SDS011;31092;51.924;21.448;2024-02-26T10:30:47;2.22;;;2.03;;
45356;SDS011;31092;51.924;21.448;2024-02-26T10:33:13;2.40;;;2.25;;
45356;SDS011;31092;51.924;21.448;2024-02-26T10:35:39;2.40;;;2.20;;
45356;SDS011;31092;51.924;21.448;2024-02-26T10:38:12;2.13;;;1.95;;
45356;SDS011;31092;51.924;21.448;2024-02-26T10:40:46;2.20;;;2.10;;
45356;SDS011;31092;51.924;21.448;2024-02-26T10:43:13;2.15;;;1.92;;
45356;SDS011;31092;51.924;21.448;2024-02-26T10:45:41;2.40;;;2.22;;
45356;SDS011;31092;51.924;21.448;2024-02-26T10:48:12;4.97;;;2.38;;
45356;SDS011;31092;51.924;21.448;2024-02-26T10:50:39;2.55;;;2.33;;
45356;SDS011;31092;51.924;21.448;2024-02-26T10:53:07;1.80;;;1.70;;
45356;SDS011;31092;51.924;21.448;2024-02-26T10:55:42;1.98;;;1.88;;
45356;SDS011;31092;51.924;21.448;2024-02-26T10:58:34;2.88;;;2.67;;
45356;SDS011;31092;51.924;21.448;2024-02-26T11:01:00;2.55;;;2.38;;
45356;SDS011;31092;51.924;21.448;2024-02-26T11:03:30;2.53;;;2.33;;
45356;SDS011;31092;51.924;21.448;2024-02-26T11:06:04;2.78;;;2.50;;
45356;SDS011;31092;51.924;21.448;2024-02-26T11:08:30;2.42;;;2.22;;
45356;SDS011;31092;51.924;21.448;2024-02-26T11:10:57;2.50;;;2.30;;
45356;SDS011;31092;51.924;21.448;2024-02-26T11:13:23;2.33;;;2.13;;
45356;SDS011;31092;51.924;21.448;2024-02-26T11:15:55;1.77;;;1.67;;
45356;SDS011;31092;51.924;21.448;2024-02-26T11:18:22;2.55;;;2.35;;
45356;SDS011;31092;51.924;21.448;2024-02-26T11:20:50;3.35;;;2.15;;
45356;SDS011;31092;51.924;21.448;2024-02-26T11:23:17;2.70;;;2.50;;
45356;SDS011;31092;51.924;21.448;2024-02-26T11:25:42;2.17;;;2.08;;
45356;SDS011;31092;51.924;21.448;2024-02-26T11:28:09;3.78;;;2.40;;
45356;SDS011;31092;51.924;21.448;2024-02-26T11:30:38;2.38;;;1.85;;
45356;SDS011;31092;51.924;21.448;2024-02-26T11:33:07;2.10;;;2.00;;
45356;SDS011;31092;51.924;21.448;2024-02-26T11:35:35;1.85;;;1.75;;
45356;SDS011;31092;51.924;21.448;2024-02-26T11:38:01;2.08;;;1.88;;
45356;SDS011;31092;51.924;21.448;2024-02-26T11:40:28;2.55;;;2.35;;
45356;SDS011;31092;51.924;21.448;2024-02-26T11:42:56;2.47;;;2.10;;
45356;SDS011;31092;51.924;21.448;2024-02-26T11:50:41;2.53;;;2.30;;
45356;SDS011;31092;51.924;21.448;2024-02-26T12:01:42;1.70;;;1.60;;
45356;SDS011;31092;51.924;21.448;2024-02-26T12:04:34;1.70;;;1.60;;
45356;SDS011;31092;51.924;21.448;2024-02-26T12:07:02;2.33;;;1.90;;
45356;SDS011;31092;51.924;21.448;2024-02-26T12:09:35;1.63;;;1.52;;
45356;SDS011;31092;51.924;21.448;2024-02-26T12:12:02;1.80;;;1.70;;
45356;SDS011;31092;51.924;21.448;2024-02-26T12:17:30;3.40;;;1.90;;
45356;SDS011;31092;51.924;21.448;2024-02-26T12:20:05;1.92;;;1.83;;
45356;SDS011;31092;51.924;21.448;2024-02-26T12:22:45;2.00;;;1.90;;
45356;SDS011;31092;51.924;21.448;2024-02-26T12:25:14;1.75;;;1.65;;
45356;SDS011;31092;51.924;21.448;2024-02-26T12:27:57;2.33;;;2.08;;
45356;SDS011;31092;51.924;21.448;2024-02-26T12:30:23;2.13;;;1.92;;
45356;SDS011;31092;51.924;21.448;2024-02-26T12:32:51;2.13;;;1.92;;
45356;SDS011;31092;51.924;21.448;2024-02-26T12:35:25;6.72;;;2.33;;
45356;SDS011;31092;51.924;21.448;2024-02-26T12:37:52;2.60;;;2.40;;
45356;SDS011;31092;51.924;21.448;2024-02-26T12:40:18;2.28;;;2.15;;
45356;SDS011;31092;51.924;21.448;2024-02-26T12:43:18;5.60;;;2.30;;
45356;SDS011;31092;51.924;21.448;2024-02-26T12:45:43;2.42;;;2.00;;
45356;SDS011;31092;51.924;21.448;2024-02-26T12:48:12;3.08;;;2.35;;
45356;SDS011;31092;51.924;21.448;2024-02-26T12:50:39;3.15;;;2.70;;
45356;SDS011;31092;51.924;21.448;2024-02-26T12:53:04;2.55;;;2.35;;
45356;SDS011;31092;51.924;21.448;2024-02-26T12:55:31;2.90;;;2.15;;
45356;SDS011;31092;51.924;21.448;2024-02-26T12:57:59;2.53;;;2.35;;
45356;SDS011;31092;51.924;21.448;2024-02-26T13:06:50;2.63;;;2.00;;
45356;SDS011;31092;51.924;21.448;2024-02-26T13:09:31;2.30;;;2.10;;
45356;SDS011;31092;51.924;21.448;2024-02-26T13:14:43;7.45;;;1.95;;
45356;SDS011;31092;51.924;21.448;2024-02-26T13:17:08;2.67;;;2.20;;
45356;SDS011;31092;51.924;21.448;2024-02-26T13:19:35;2.03;;;1.88;;
45356;SDS011;31092;51.924;21.448;2024-02-26T13:22:04;2.38;;;2.17;;
45356;SDS011;31092;51.924;21.448;2024-02-26T13:24:34;4.47;;;1.88;;
45356;SDS011;31092;51.924;21.448;2024-02-26T13:30:55;2.00;;;1.90;;
45356;SDS011;31092;51.924;21.448;2024-02-26T13:33:22;2.42;;;2.22;;
45356;SDS011;31092;51.924;21.448;2024-02-26T13:35:54;2.60;;;2.40;;
45356;SDS011;31092;51.924;21.448;2024-02-26T13:38:24;3.80;;;2.00;;
45356;SDS011;31092;51.924;21.448;2024-02-26T13:40:55;2.20;;;2.10;;
45356;SDS011;31092;51.924;21.448;2024-02-26T13:43:25;2.45;;;2.25;;
45356;SDS011;31092;51.924;21.448;2024-02-26T13:45:51;2.58;;;2.38;;
45356;SDS011;31092;51.924;21.448;2024-02-26T13:48:17;2.75;;;2.25;;
45356;SDS011;31092;51.924;21.448;2024-02-26T13:50:43;2.20;;;2.10;;
45356;SDS011;31092;51.924;21.448;2024-02-26T13:53:10;3.03;;;2.13;;
45356;SDS011;31092;51.924;21.448;2024-02-26T13:55:37;2.30;;;2.10;;
45356;SDS011;31092;51.924;21.448;2024-02-26T13:58:05;2.78;;;2.58;;
45356;SDS011;31092;51.924;21.448;2024-02-26T14:00:32;3.42;;;2.78;;
45356;SDS011;31092;51.924;21.448;2024-02-26T14:02:59;2.85;;;2.65;;
45356;SDS011;31092;51.924;21.448;2024-02-26T14:05:25;2.92;;;2.55;;
45356;SDS011;31092;51.924;21.448;2024-02-26T14:07:50;3.15;;;2.45;;
45356;SDS011;31092;51.924;21.448;2024-02-26T14:10:15;3.10;;;2.90;;
45356;SDS011;31092;51.924;21.448;2024-02-26T14:12:41;5.55;;;2.95;;
45356;SDS011;31092;51.924;21.448;2024-02-26T14:15:07;3.30;;;2.47;;
45356;SDS011;31092;51.924;21.448;2024-02-26T14:17:33;2.85;;;2.65;;
45356;SDS011;31092;51.924;21.448;2024-02-26T14:19:58;3.45;;;2.90;;
45356;SDS011;31092;51.924;21.448;2024-02-26T14:22:24;2.47;;;2.28;;
45356;SDS011;31092;51.924;21.448;2024-02-26T14:24:51;6.25;;;3.05;;
45356;SDS011;31092;51.924;21.448;2024-02-26T14:27:17;3.42;;;2.97;;
45356;SDS011;31092;51.924;21.448;2024-02-26T14:29:45;2.70;;;2.50;;
45356;SDS011;31092;51.924;21.448;2024-02-26T14:32:11;2.08;;;1.98;;
45356;SDS011;31092;51.924;21.448;2024-02-26T14:34:36;3.67;;;2.90;;
45356;SDS011;31092;51.924;21.448;2024-02-26T14:37:02;2.63;;;2.35;;
45356;SDS011;31092;51.924;21.448;2024-02-26T14:39:29;3.67;;;3.13;;
45356;SDS011;31092;51.924;21.448;2024-02-26T14:41:55;4.90;;;3.45;;
45356;SDS011;31092;51.924;21.448;2024-02-26T14:44:20;5.78;;;4.13;;
45356;SDS011;31092;51.924;21.448;2024-02-26T14:46:46;4.75;;;4.32;;
45356;SDS011;31092;51.924;21.448;2024-02-26T14:49:11;4.70;;;4.15;;
45356;SDS011;31092;51.924;21.448;2024-02-26T14:51:37;6.40;;;5.15;;
45356;SDS011;31092;51.924;21.448;2024-02-26T14:54:03;5.63;;;5.03;;
45356;SDS011;31092;51.924;21.448;2024-02-26T14:56:29;10.48;;;5.35;;
45356;SDS011;31092;51.924;21.448;2024-02-26T14:58:54;7.90;;;5.03;;